LTA weather

La Angostura Airport
Caborca, Sonora, Mexico

Public forecast

Using degrees Celsius for public forecast. Weather courtesy of forecast.io.

METAR (pilot weather report)

Closest report is (Old) Puerto PeƱasco Airport, 47.5 nm (88.0 km) NW. Retrieved UTC (0 seconds ago):

TAF (pilot weather forecast)

Closest forecast is Nogales International Airport, 106.7 nm (197.5 km) ENE. Retrieved 2019/05/25 06:22 UTC (11 minutes ago):

TAF KOLS 250520Z 2506/2606 VRB04KT P6SM SKC FM251700 18010G20KT P6SM SKC FM252000 20015G25KT P6SM SKC FM260400 19012KT P6SM SKC